Time;durP1;ratioP1;P1;durP2;ratioP2;P2;SDS_P1;SDS_P2;PMS_P1;PMS_P2;Temp;Humidity;BMP_temperature;BMP_pressure;BME280_temperature;BME280_humidity;BME280_pressure;Samples;Min_cycle;Max_cycle;Signal;HPM_P1;HPM_P2
2022/04/12 00:00:47;;;;;;;7.55;2.25;;;23.70;70.60;;;;;;4153268;28;20132;-67
2022/04/12 00:02:59;;;;;;;5.28;1.40;;;23.70;70.50;;;;;;4155801;28;20047;-70
2022/04/12 00:05:02;;;;;;;3.45;1.77;;;23.70;70.50;;;;;;4156655;28;20069;-70
2022/04/12 00:07:04;;;;;;;5.00;1.83;;;23.80;70.50;;;;;;4151077;28;20169;-71
2022/04/12 00:09:07;;;;;;;3.13;1.60;;;23.80;71.10;;;;;;4135523;28;20136;-68
2022/04/12 00:11:09;;;;;;;8.15;1.88;;;23.80;70.50;;;;;;4143406;28;20820;-65
2022/04/12 00:13:12;;;;;;;6.22;1.83;;;23.80;70.30;;;;;;4138126;28;20140;-68
2022/04/12 00:15:14;;;;;;;3.28;1.60;;;23.80;70.90;;;;;;4144343;28;20054;-66
2022/04/12 00:19:37;;;;;;;4.93;1.90;;;23.80;70.20;;;;;;4144195;28;20148;-69
2022/04/12 00:21:39;;;;;;;6.53;1.67;;;23.80;70.20;;;;;;4143756;28;20048;-66
2022/04/12 00:23:41;;;;;;;3.53;1.83;;;23.80;70.10;;;;;;4138708;28;20067;-63
2022/04/12 00:25:44;;;;;;;6.28;1.40;;;23.80;70.10;;;;;;4140007;28;20820;-65
2022/04/12 00:27:46;;;;;;;4.03;1.65;;;23.90;70.10;;;;;;4145518;28;20049;-65
2022/04/12 00:29:48;;;;;;;5.22;1.98;;;23.90;70.10;;;;;;4140057;28;21723;-64
2022/04/12 00:31:50;;;;;;;5.97;1.70;;;23.90;69.90;;;;;;4136180;28;20044;-62
2022/04/12 00:33:53;;;;;;;4.95;1.75;;;24.00;69.90;;;;;;4138733;28;20130;-62
2022/04/12 00:35:58;;;;;;;5.63;1.67;;;24.00;69.60;;;;;;4144413;28;20972;-67
2022/04/12 00:38:00;;;;;;;5.80;1.70;;;23.90;69.50;;;;;;4133992;28;21948;-64
2022/04/12 00:40:04;;;;;;;7.63;1.95;;;24.00;69.70;;;;;;4139230;28;20240;-67
2022/04/12 00:42:06;;;;;;;6.05;1.88;;;24.00;69.70;;;;;;4143343;28;20056;-66
2022/04/12 00:44:09;;;;;;;6.35;2.10;;;24.00;69.70;;;;;;4145115;28;20064;-65
2022/04/12 00:46:11;;;;;;;3.35;1.52;;;24.00;69.90;;;;;;4139293;28;20498;-63
2022/04/12 00:48:14;;;;;;;5.95;2.00;;;24.00;69.80;;;;;;4141120;28;20190;-69
2022/04/12 00:50:16;;;;;;;8.77;2.08;;;24.00;69.80;;;;;;4144877;28;20096;-60
2022/04/12 00:52:19;;;;;;;8.27;2.30;;;24.00;69.70;;;;;;4141126;28;21104;-65
2022/04/12 00:54:23;;;;;;;8.57;2.22;;;24.00;70.00;;;;;;4137029;28;20076;-60
2022/04/12 00:56:26;;;;;;;12.57;2.00;;;24.00;70.20;;;;;;4140861;28;20990;-60
2022/04/12 00:58:29;;;;;;;7.15;1.90;;;24.10;70.30;;;;;;4145696;28;20052;-61
2022/04/12 01:00:31;;;;;;;5.38;2.08;;;24.10;70.10;;;;;;4140629;28;20045;-61
2022/04/12 01:02:34;;;;;;;4.40;1.80;;;24.20;70.00;;;;;;4140659;28;20138;-61
2022/04/12 01:04:37;;;;;;;7.40;2.08;;;24.20;70.10;;;;;;4140722;28;20071;-61
2022/04/12 01:06:39;;;;;;;6.53;2.33;;;24.20;69.90;;;;;;4146854;28;20053;-60
2022/04/12 01:08:41;;;;;;;4.05;1.60;;;24.20;69.80;;;;;;4141299;28;20146;-61
2022/04/12 01:10:45;;;;;;;6.63;1.90;;;24.20;69.80;;;;;;4145459;28;20103;-61
2022/04/12 01:12:48;;;;;;;7.07;2.08;;;24.20;69.80;;;;;;4148785;28;20045;-61
2022/04/12 01:14:50;;;;;;;5.38;2.15;;;24.20;69.80;;;;;;4148773;28;20412;-61
2022/04/12 01:16:53;;;;;;;4.00;1.58;;;24.20;69.80;;;;;;4144980;28;20048;-61
2022/04/12 01:18:55;;;;;;;9.70;2.17;;;24.20;69.80;;;;;;4144536;28;20496;-61
2022/04/12 01:20:57;;;;;;;4.10;1.90;;;24.20;69.80;;;;;;4151872;28;20417;-61
2022/04/12 01:23:23;;;;;;;4.78;1.63;;;24.20;69.80;;;;;;4145763;28;20057;-62
2022/04/12 01:25:25;;;;;;;6.43;2.47;;;24.20;69.80;;;;;;4147038;28;20141;-61
2022/04/12 01:27:27;;;;;;;5.07;1.80;;;24.20;69.80;;;;;;4148475;28;20057;-61
2022/04/12 01:29:35;;;;;;;6.63;1.90;;;24.20;69.80;;;;;;4145020;28;20061;-62
2022/04/12 01:31:37;;;;;;;17.55;2.63;;;24.20;69.80;;;;;;4143139;28;20064;-66
2022/04/12 01:33:39;;;;;;;13.40;2.50;;;24.30;70.10;;;;;;4147693;28;21007;-63
2022/04/12 01:35:41;;;;;;;8.60;2.05;;;24.30;70.20;;;;;;4133030;28;20065;-63
2022/04/12 01:37:43;;;;;;;7.57;2.22;;;24.30;70.20;;;;;;4141197;28;20056;-65
2022/04/12 01:39:46;;;;;;;7.80;1.67;;;24.40;70.20;;;;;;4144473;28;20110;-66
2022/04/12 01:41:48;;;;;;;5.97;2.00;;;24.40;70.20;;;;;;4133855;28;20581;-59
2022/04/12 01:43:50;;;;;;;18.48;1.88;;;24.40;70.20;;;;;;4144817;28;20099;-62
2022/04/12 01:45:52;;;;;;;4.95;1.77;;;24.40;69.30;;;;;;4145577;28;20059;-65
2022/04/12 01:47:56;;;;;;;4.43;1.60;;;24.40;68.20;;;;;;4146157;28;20049;-65
2022/04/12 01:49:58;;;;;;;5.28;1.90;;;24.40;68.20;;;;;;4148398;28;20117;-65
2022/04/12 01:52:04;;;;;;;4.80;2.03;;;24.40;67.90;;;;;;4125199;28;20071;-64
2022/04/12 01:54:06;;;;;;;3.95;1.60;;;24.40;68.10;;;;;;4140861;28;20573;-65
2022/04/12 01:56:09;;;;;;;4.93;1.80;;;24.40;68.20;;;;;;4144377;28;20131;-63
2022/04/12 01:58:11;;;;;;;5.07;1.70;;;24.40;68.30;;;;;;4148053;28;20060;-65
2022/04/12 02:00:16;;;;;;;4.47;1.50;;;24.40;68.40;;;;;;4142059;28;21918;-64
2022/04/12 02:02:18;;;;;;;4.63;1.63;;;24.40;68.50;;;;;;4142464;28;20143;-67
2022/04/12 02:04:21;;;;;;;16.73;2.72;;;24.40;68.50;;;;;;4148118;28;20317;-62
2022/04/12 02:06:23;;;;;;;4.38;1.50;;;24.40;67.70;;;;;;4146914;28;21503;-61
2022/04/12 02:08:25;;;;;;;7.70;2.33;;;24.40;66.50;;;;;;4141217;28;20057;-66
2022/04/12 02:10:27;;;;;;;4.85;2.13;;;24.30;65.90;;;;;;4140423;28;20044;-62
2022/04/12 02:12:30;;;;;;;8.20;2.43;;;24.30;66.30;;;;;;4150561;28;20049;-61
2022/04/12 02:14:32;;;;;;;7.63;2.45;;;24.20;66.40;;;;;;4142257;28;21769;-59
2022/04/12 02:16:35;;;;;;;5.28;2.42;;;24.20;65.50;;;;;;4142625;28;20612;-63
2022/04/12 02:18:37;;;;;;;4.38;1.95;;;24.20;65.70;;;;;;4147520;28;20052;-58
2022/04/12 02:20:39;;;;;;;5.75;2.28;;;24.20;65.70;;;;;;4148752;28;21746;-63
2022/04/12 02:22:42;;;;;;;6.88;1.92;;;24.20;64.80;;;;;;4144333;28;20059;-60
2022/04/12 02:24:44;;;;;;;5.55;1.95;;;24.20;64.80;;;;;;4141100;28;20167;-63
2022/04/12 02:26:47;;;;;;;6.32;2.08;;;24.20;65.70;;;;;;4149264;28;20771;-62
2022/04/12 02:28:49;;;;;;;5.10;2.05;;;24.20;65.80;;;;;;4145860;28;20045;-57
2022/04/12 02:30:51;;;;;;;4.47;2.00;;;24.20;65.00;;;;;;4143004;28;20137;-59
2022/04/12 02:32:53;;;;;;;9.80;2.30;;;24.20;65.20;;;;;;4145713;28;20132;-59
2022/04/12 02:35:00;;;;;;;5.43;2.25;;;24.20;65.50;;;;;;4147915;28;20051;-59
2022/04/12 02:37:03;;;;;;;4.78;1.92;;;24.20;65.50;;;;;;4144612;28;21485;-61
2022/04/12 02:39:05;;;;;;;5.53;1.70;;;24.20;65.50;;;;;;4140940;28;20171;-59
2022/04/12 02:41:07;;;;;;;6.50;2.00;;;24.20;64.80;;;;;;4161467;28;20383;-59
2022/04/12 02:43:09;;;;;;;3.60;1.77;;;24.20;64.70;;;;;;4149838;28;20072;-59
2022/04/12 02:45:12;;;;;;;8.38;2.45;;;24.10;64.60;;;;;;4143184;28;20542;-59
2022/04/12 02:47:14;;;;;;;5.18;1.92;;;24.10;63.80;;;;;;4145880;28;20060;-56
2022/04/12 02:49:16;;;;;;;6.53;2.22;;;24.10;64.80;;;;;;4149943;28;20051;-58
2022/04/12 02:51:18;;;;;;;5.30;2.35;;;24.10;66.10;;;;;;4143882;28;20577;-56
2022/04/12 02:53:20;;;;;;;8.75;2.45;;;24.10;64.10;;;;;;4143054;28;20103;-59
2022/04/12 02:55:22;;;;;;;3.92;1.80;;;24.10;64.10;;;;;;4147210;28;20164;-59
2022/04/12 02:57:24;;;;;;;5.32;1.80;;;24.00;64.90;;;;;;4147541;28;20091;-61
2022/04/12 02:59:26;;;;;;;5.03;1.95;;;24.10;64.50;;;;;;4144687;28;20063;-57
2022/04/12 03:01:29;;;;;;;7.75;2.33;;;24.10;64.80;;;;;;4144377;28;20053;-60
2022/04/12 03:03:31;;;;;;;5.85;1.98;;;24.00;64.70;;;;;;4152690;28;20058;-58
2022/04/12 03:05:33;;;;;;;7.38;2.53;;;24.00;64.80;;;;;;4148170;28;20056;-59
2022/04/12 03:07:35;;;;;;;5.40;1.98;;;24.00;64.30;;;;;;4146746;28;20057;-53
2022/04/12 03:09:37;;;;;;;6.70;2.20;;;24.00;64.30;;;;;;4150719;28;20080;-58
2022/04/12 03:11:39;;;;;;;6.25;2.00;;;24.10;64.50;;;;;;4149677;28;21531;-58
2022/04/12 03:13:42;;;;;;;6.47;2.05;;;24.10;64.80;;;;;;4146972;28;20060;-57
2022/04/12 03:15:44;;;;;;;6.38;1.90;;;24.10;65.00;;;;;;4146967;28;20688;-57
2022/04/12 03:17:47;;;;;;;3.92;1.83;;;24.20;65.20;;;;;;4154199;28;20120;-56
2022/04/12 03:19:49;;;;;;;3.92;1.80;;;24.20;65.20;;;;;;4150042;28;20195;-56
2022/04/12 03:21:51;;;;;;;6.28;2.53;;;24.30;65.30;;;;;;4149097;28;20456;-58
2022/04/12 03:23:53;;;;;;;4.55;1.80;;;24.30;65.40;;;;;;4150947;28;20048;-58
2022/04/12 03:25:55;;;;;;;4.72;2.13;;;24.40;65.50;;;;;;4152142;28;20145;-58
2022/04/12 03:27:57;;;;;;;9.07;2.22;;;24.40;65.80;;;;;;4151989;28;20048;-57
2022/04/12 03:29:59;;;;;;;6.70;2.10;;;24.40;65.60;;;;;;4149456;28;20071;-56
2022/04/12 03:32:02;;;;;;;8.80;2.28;;;24.40;65.70;;;;;;4149819;28;20424;-53
2022/04/12 03:34:05;;;;;;;5.05;1.80;;;24.50;65.50;;;;;;4147094;28;20085;-56
2022/04/12 03:36:07;;;;;;;3.17;1.40;;;24.50;65.50;;;;;;4149044;28;20055;-57
2022/04/12 03:38:09;;;;;;;4.53;1.27;;;24.50;65.50;;;;;;4151024;28;20076;-57
2022/04/12 03:40:12;;;;;;;1.75;0.90;;;24.50;65.60;;;;;;4153625;28;20772;-55
2022/04/12 03:42:16;;;;;;;2.83;0.82;;;24.50;65.60;;;;;;4150866;28;20060;-56
2022/04/12 03:44:19;;;;;;;1.85;0.90;;;24.60;65.60;;;;;;4149567;28;20061;-55
2022/04/12 03:46:21;;;;;;;1.55;0.60;;;24.60;65.60;;;;;;4155553;28;20723;-57
2022/04/12 03:48:23;;;;;;;1.90;0.57;;;24.60;65.60;;;;;;4155942;28;20494;-59
2022/04/12 03:50:25;;;;;;;2.70;0.85;;;24.60;65.90;;;;;;4154486;28;20057;-58
2022/04/12 03:52:27;;;;;;;2.93;0.87;;;24.70;66.40;;;;;;4153753;28;20133;-60
2022/04/12 03:54:30;;;;;;;1.63;0.63;;;24.70;66.50;;;;;;4157129;28;20120;-60
2022/04/12 03:56:32;;;;;;;2.13;0.60;;;24.80;66.60;;;;;;4154053;28;21162;-60
2022/04/12 03:58:38;;;;;;;2.42;0.50;;;24.80;66.50;;;;;;4151486;28;20400;-59
2022/04/12 04:00:41;;;;;;;1.05;0.70;;;24.90;66.60;;;;;;4152275;28;20110;-57
2022/04/12 04:02:43;;;;;;;1.45;0.77;;;25.00;66.90;;;;;;4155161;28;20049;-54
2022/04/12 04:04:45;;;;;;;1.52;0.60;;;25.00;66.80;;;;;;4157082;28;20055;-57
2022/04/12 04:06:47;;;;;;;1.27;0.60;;;25.10;66.70;;;;;;4153063;28;20052;-55
2022/04/12 04:08:50;;;;;;;1.92;0.75;;;25.10;66.70;;;;;;4157378;28;20048;-54
2022/04/12 04:10:52;;;;;;;0.93;0.47;;;25.20;66.60;;;;;;4150397;28;21501;-50
2022/04/12 04:12:54;;;;;;;0.53;0.50;;;25.30;66.50;;;;;;4148117;28;20048;-55
2022/04/12 04:14:57;;;;;;;1.00;0.70;;;25.30;66.30;;;;;;4160423;28;20722;-54
2022/04/12 04:17:03;;;;;;;0.60;0.50;;;25.40;66.20;;;;;;4146444;28;20041;-57
2022/04/12 04:19:09;;;;;;;0.57;0.52;;;25.40;66.10;;;;;;4163283;28;20136;-59
2022/04/12 04:21:11;;;;;;;0.95;0.50;;;25.50;66.10;;;;;;4154766;28;20071;-58
2022/04/12 04:23:13;;;;;;;1.25;0.60;;;25.60;65.90;;;;;;4152627;28;20037;-58
2022/04/12 04:25:17;;;;;;;1.98;0.80;;;25.60;66.00;;;;;;4161349;28;20049;-57
2022/04/12 04:27:28;;;;;;;2.35;0.98;;;25.70;66.00;;;;;;4153460;28;20087;-59
2022/04/12 04:29:35;;;;;;;1.52;1.08;;;25.70;66.10;;;;;;4153413;28;21127;-58
2022/04/12 04:31:37;;;;;;;3.15;1.30;;;25.70;65.80;;;;;;4149160;28;20327;-57
2022/04/12 04:33:39;;;;;;;1.47;0.90;;;25.70;66.10;;;;;;4135614;28;20476;-59
2022/04/12 04:35:42;;;;;;;2.67;0.70;;;25.80;66.20;;;;;;4155347;28;20756;-53
2022/04/12 04:37:48;;;;;;;2.63;1.10;;;25.80;65.90;;;;;;4146053;28;20061;-57
2022/04/12 04:39:50;;;;;;;1.27;0.68;;;25.90;65.70;;;;;;4145392;28;20059;-54
2022/04/12 04:41:52;;;;;;;2.70;0.95;;;25.90;65.60;;;;;;4141572;28;20049;-51
2022/04/12 04:43:55;;;;;;;1.52;0.90;;;26.00;65.60;;;;;;4142727;28;21030;-53
2022/04/12 04:45:58;;;;;;;1.33;0.77;;;26.00;66.10;;;;;;4141034;28;20356;-60
2022/04/12 04:48:02;;;;;;;1.70;1.03;;;26.00;65.10;;;;;;4134444;28;20065;-55
2022/04/12 04:50:05;;;;;;;2.33;1.50;;;26.10;64.50;;;;;;4135414;28;20223;-55
2022/04/12 04:52:07;;;;;;;2.15;1.42;;;26.10;64.90;;;;;;4142507;28;20072;-57
2022/04/12 04:54:09;;;;;;;6.30;1.35;;;26.20;64.90;;;;;;4135465;28;20055;-55
2022/04/12 04:56:11;;;;;;;5.53;1.60;;;26.20;64.80;;;;;;4134178;28;20053;-51
2022/04/12 04:58:14;;;;;;;4.35;1.45;;;26.30;64.90;;;;;;4137261;28;20508;-56
2022/04/12 05:00:17;;;;;;;;;;;26.30;64.90;;;;;;4139769;28;20053;-54
2022/04/12 05:02:19;;;;;;;3.08;1.20;;;26.40;64.90;;;;;;4132329;28;19924;-54
2022/04/12 05:04:22;;;;;;;4.60;1.30;;;26.50;64.70;;;;;;4132952;28;20061;-57
2022/04/12 05:06:24;;;;;;;2.77;1.17;;;26.50;64.50;;;;;;4141288;28;20579;-58
2022/04/12 05:08:26;;;;;;;7.50;1.67;;;26.60;64.40;;;;;;4136098;28;20064;-58
2022/04/12 05:10:30;;;;;;;5.80;1.65;;;26.60;64.30;;;;;;4134941;28;20051;-57
2022/04/12 05:12:33;;;;;;;3.97;1.25;;;26.60;64.20;;;;;;4132720;28;20083;-58
2022/04/12 05:14:35;;;;;;;2.67;1.47;;;26.60;64.20;;;;;;4140872;28;20045;-57
2022/04/12 05:16:37;;;;;;;3.22;1.33;;;26.70;64.20;;;;;;4116526;28;21770;-52
2022/04/12 05:18:39;;;;;;;4.72;1.10;;;26.70;64.20;;;;;;4132203;28;20195;-55
2022/04/12 05:20:43;;;;;;;3.88;1.42;;;26.70;64.20;;;;;;4138096;28;20132;-57
2022/04/12 05:22:46;;;;;;;9.57;1.63;;;26.70;64.30;;;;;;4139987;28;20063;-53
2022/04/12 05:24:49;;;;;;;5.68;1.42;;;26.70;64.20;;;;;;4134080;28;20056;-56
2022/04/12 05:26:51;;;;;;;9.63;1.63;;;26.70;64.20;;;;;;4134985;28;20072;-59
2022/04/12 05:28:53;;;;;;;2.53;1.20;;;26.80;64.40;;;;;;4140655;28;20048;-60
2022/04/12 05:30:55;;;;;;;4.47;1.40;;;26.80;64.20;;;;;;4135598;28;22011;-56
2022/04/12 05:32:58;;;;;;;3.85;1.27;;;26.80;64.30;;;;;;4134047;28;20832;-57
2022/04/12 05:35:00;;;;;;;2.43;1.40;;;26.70;64.50;;;;;;4135934;28;20557;-58
2022/04/12 05:37:03;;;;;;;2.35;1.13;;;26.70;64.60;;;;;;4141078;28;20109;-58
2022/04/12 05:39:05;;;;;;;2.97;1.42;;;26.60;64.70;;;;;;4133386;28;20288;-61
2022/04/12 05:41:07;;;;;;;4.25;1.23;;;26.60;64.80;;;;;;4134997;28;20197;-60
2022/04/12 05:43:10;;;;;;;2.40;1.33;;;26.60;64.80;;;;;;4138878;28;20300;-59
2022/04/12 05:45:14;;;;;;;5.53;1.25;;;26.60;64.90;;;;;;4122216;28;20084;-58
2022/04/12 05:47:16;;;;;;;2.78;1.20;;;26.60;64.80;;;;;;4135120;28;20048;-55
2022/04/12 05:49:18;;;;;;;2.43;1.20;;;26.50;65.00;;;;;;4135875;28;20056;-59
2022/04/12 05:51:20;;;;;;;4.22;1.60;;;26.50;65.10;;;;;;4141497;28;20048;-62
2022/04/12 05:53:24;;;;;;;4.07;1.38;;;26.50;65.00;;;;;;4131308;28;20048;-62
2022/04/12 05:55:29;;;;;;;2.20;1.20;;;26.40;65.00;;;;;;4115333;28;20076;-61
2022/04/12 05:57:31;;;;;;;3.67;1.10;;;26.40;65.10;;;;;;4148119;28;20067;-61
2022/04/12 05:59:33;;;;;;;2.42;1.08;;;26.40;65.30;;;;;;4140438;28;20480;-61
2022/04/12 06:01:36;;;;;;;2.37;1.50;;;26.40;65.30;;;;;;4133313;28;22328;-60
2022/04/12 06:03:38;;;;;;;1.58;0.95;;;26.40;65.50;;;;;;4132675;28;20317;-66
2022/04/12 06:05:40;;;;;;;1.67;1.05;;;26.30;65.50;;;;;;4139173;28;20101;-62
2022/04/12 06:07:44;;;;;;;0.93;0.82;;;26.30;65.50;;;;;;4122453;28;20060;-60
2022/04/12 06:09:46;;;;;;;2.05;1.10;;;26.30;65.60;;;;;;4132431;28;20052;-61
2022/04/12 06:11:49;;;;;;;2.67;1.00;;;26.30;65.60;;;;;;4133089;28;20151;-63
2022/04/12 06:13:51;;;;;;;4.07;1.25;;;26.30;65.70;;;;;;4141174;28;20049;-60
2022/04/12 06:15:53;;;;;;;2.90;1.03;;;26.30;65.90;;;;;;4136919;28;20063;-64
2022/04/12 06:17:55;;;;;;;8.30;1.20;;;26.30;65.90;;;;;;4116447;28;21160;-60
2022/04/12 06:20:06;;;;;;;2.70;1.10;;;26.30;65.90;;;;;;4135368;28;20049;-60
2022/04/12 06:22:08;;;;;;;3.00;1.30;;;26.20;65.90;;;;;;4138538;28;20651;-62
2022/04/12 06:24:12;;;;;;;2.95;1.40;;;26.30;66.00;;;;;;4124755;28;20425;-62
2022/04/12 06:26:14;;;;;;;2.67;1.00;;;26.30;65.80;;;;;;4101189;28;20057;-62
2022/04/12 06:28:17;;;;;;;3.17;1.07;;;26.30;65.80;;;;;;4116613;28;20068;-62
2022/04/12 06:30:24;;;;;;;1.40;0.83;;;26.30;65.80;;;;;;4139684;28;20314;-62
2022/04/12 06:32:27;;;;;;;3.20;1.10;;;26.30;65.90;;;;;;4141799;28;20045;-62
2022/04/12 06:34:29;;;;;;;9.07;1.37;;;26.30;65.90;;;;;;4133112;28;20833;-62
2022/04/12 06:36:31;;;;;;;2.13;0.90;;;26.20;65.90;;;;;;4137187;28;20313;-63
2022/04/12 06:38:34;;;;;;;1.65;0.95;;;26.30;66.10;;;;;;4142948;28;20084;-62
2022/04/12 06:40:36;;;;;;;2.15;1.13;;;26.20;66.00;;;;;;4142392;28;20699;-63
2022/04/12 06:42:39;;;;;;;1.20;0.90;;;26.20;66.10;;;;;;4138122;28;20049;-62
2022/04/12 06:44:41;;;;;;;1.48;1.13;;;26.20;66.20;;;;;;4119527;28;20055;-62
2022/04/12 06:46:44;;;;;;;2.35;1.45;;;26.20;66.20;;;;;;4142271;28;20053;-61
2022/04/12 06:48:46;;;;;;;1.70;1.30;;;26.10;66.10;;;;;;4134938;28;20931;-63
2022/04/12 06:50:48;;;;;;;1.00;0.90;;;26.20;66.20;;;;;;4121289;28;21331;-63
2022/04/12 06:52:51;;;;;;;1.50;1.10;;;26.10;66.00;;;;;;4126336;28;20042;-63
2022/04/12 06:54:53;;;;;;;1.98;1.35;;;26.10;66.10;;;;;;4143331;28;21638;-61
2022/04/12 06:56:55;;;;;;;1.48;1.05;;;26.10;66.00;;;;;;4121687;28;20048;-61
2022/04/12 06:58:57;;;;;;;1.20;0.90;;;26.10;66.10;;;;;;4137172;28;20080;-60
2022/04/12 07:01:00;;;;;;;2.53;1.10;;;26.10;66.10;;;;;;4147320;28;20058;-63
2022/04/12 07:03:02;;;;;;;2.08;1.20;;;26.10;66.10;;;;;;4138923;28;20162;-62
2022/04/12 07:05:05;;;;;;;1.33;1.00;;;26.10;65.90;;;;;;4139212;28;20707;-61
2022/04/12 07:07:08;;;;;;;1.83;1.05;;;26.10;65.80;;;;;;4142304;28;20060;-62
2022/04/12 07:09:16;;;;;;;1.60;1.02;;;26.00;65.50;;;;;;4146964;28;20579;-62
2022/04/12 07:11:20;;;;;;;1.88;1.20;;;26.00;65.40;;;;;;4143646;28;21586;-63
2022/04/12 07:13:25;;;;;;;2.15;1.30;;;26.00;65.30;;;;;;4141047;28;20033;-59
2022/04/12 07:15:27;;;;;;;2.53;1.20;;;25.90;65.10;;;;;;4139426;28;20143;-61
2022/04/12 07:17:30;;;;;;;2.13;1.05;;;25.90;65.60;;;;;;4147446;28;20059;-60
2022/04/12 07:19:32;;;;;;;;;;;25.80;64.90;;;;;;4144506;28;20049;-60
2022/04/12 07:21:37;;;;;;;2.53;1.20;;;25.80;65.00;;;;;;4140776;28;19952;-60
2022/04/12 07:23:39;;;;;;;4.03;1.42;;;25.80;65.10;;;;;;4140306;28;20072;-58
2022/04/12 07:25:41;;;;;;;2.38;1.40;;;25.80;65.20;;;;;;4148426;28;20049;-66
2022/04/12 07:27:44;;;;;;;2.60;1.23;;;25.80;65.30;;;;;;4143673;28;20056;-64
2022/04/12 07:29:46;;;;;;;3.00;1.73;;;25.80;65.40;;;;;;4142045;28;20079;-64
2022/04/12 07:31:49;;;;;;;4.40;1.50;;;25.70;65.10;;;;;;4144409;28;20681;-64
2022/04/12 07:33:51;;;;;;;2.70;1.77;;;25.70;65.00;;;;;;4146517;28;20143;-64
2022/04/12 07:35:55;;;;;;;3.90;1.42;;;25.70;65.10;;;;;;4125838;28;20525;-63
2022/04/12 07:37:57;;;;;;;2.75;1.23;;;25.70;64.90;;;;;;4144479;28;20113;-63
2022/04/12 07:40:09;;;;;;;3.30;1.38;;;25.70;65.00;;;;;;4150612;28;20230;-64
2022/04/12 07:42:15;;;;;;;3.30;1.52;;;25.60;65.00;;;;;;4150530;28;20040;-64
2022/04/12 07:44:37;;;;;;;3.40;1.80;;;25.60;64.90;;;;;;4152219;28;20049;-64
2022/04/12 07:46:40;;;;;;;3.25;2.03;;;25.60;64.90;;;;;;4145912;28;20053;-61
2022/04/12 07:48:42;;;;;;;3.28;1.83;;;25.50;64.90;;;;;;4149989;28;20739;-61
2022/04/12 07:50:48;;;;;;;4.97;2.15;;;25.50;64.80;;;;;;4143600;28;21404;-63
2022/04/12 07:52:50;;;;;;;4.05;2.10;;;25.50;65.00;;;;;;4128134;28;20438;-59
2022/04/12 07:54:52;;;;;;;3.63;2.10;;;25.50;65.10;;;;;;4144896;28;20487;-61
2022/04/12 07:56:55;;;;;;;9.00;2.03;;;25.40;65.30;;;;;;4149383;28;20171;-62
2022/04/12 07:59:04;;;;;;;3.80;2.00;;;25.40;65.40;;;;;;4142777;28;20119;-62
2022/04/12 08:01:06;;;;;;;2.55;1.77;;;25.40;65.50;;;;;;4145918;28;20069;-62
2022/04/12 08:03:08;;;;;;;8.93;1.95;;;25.40;65.50;;;;;;4142277;28;20595;-62
2022/04/12 08:05:11;;;;;;;2.17;1.60;;;25.40;65.60;;;;;;4151252;28;20450;-62
2022/04/12 08:07:13;;;;;;;5.85;1.80;;;25.40;65.60;;;;;;4145282;28;20053;-64
2022/04/12 08:09:15;;;;;;;8.50;2.17;;;25.40;65.70;;;;;;4140828;28;20140;-61
2022/04/12 08:11:17;;;;;;;3.67;1.65;;;25.40;65.70;;;;;;4149195;28;20536;-62
2022/04/12 08:13:19;;;;;;;2.58;1.70;;;25.40;66.00;;;;;;4146660;28;20084;-62
2022/04/12 08:15:50;;;;;;;4.30;1.57;;;25.40;66.00;;;;;;4146079;28;20356;-62
2022/04/12 08:18:04;;;;;;;3.38;1.70;;;25.30;65.80;;;;;;4145188;28;20155;-63
2022/04/12 08:20:36;;;;;;;6.68;1.80;;;25.30;65.90;;;;;;4145254;28;20053;-62
2022/04/12 08:22:44;;;;;;;3.38;1.60;;;25.30;66.00;;;;;;4151463;28;20044;-64
2022/04/12 08:24:46;;;;;;;3.88;1.33;;;25.30;66.00;;;;;;4148427;28;21004;-62
2022/04/12 08:26:49;;;;;;;4.63;2.00;;;25.30;66.00;;;;;;4147748;28;20144;-62
2022/04/12 08:28:52;;;;;;;5.97;1.57;;;25.30;66.10;;;;;;4146051;28;20309;-62
2022/04/12 08:30:54;;;;;;;3.20;1.75;;;25.30;66.40;;;;;;4152297;28;20463;-62
2022/04/12 08:33:02;;;;;;;8.38;2.20;;;25.30;66.30;;;;;;4147152;28;20044;-61
2022/04/12 08:35:07;;;;;;;4.85;1.50;;;25.20;66.20;;;;;;4149445;28;20132;-67
2022/04/12 08:37:19;;;;;;;10.15;2.03;;;25.20;66.30;;;;;;4150036;28;20528;-67
2022/04/12 08:39:41;;;;;;;4.00;1.42;;;25.20;66.40;;;;;;4149717;28;20164;-66
2022/04/12 08:41:44;;;;;;;3.20;1.38;;;25.20;66.30;;;;;;4133059;28;20140;-66
2022/04/12 08:43:46;;;;;;;2.17;1.40;;;25.20;66.40;;;;;;4146901;28;20121;-61
2022/04/12 08:45:51;;;;;;;4.13;1.50;;;25.20;66.20;;;;;;4145977;28;20057;-62
2022/04/12 08:48:18;;;;;;;7.82;2.00;;;25.20;66.20;;;;;;4155382;28;20614;-64
2022/04/12 08:50:53;;;;;;;4.72;1.65;;;25.20;66.30;;;;;;4158297;28;20037;-66
2022/04/12 08:52:55;;;;;;;3.28;1.40;;;25.20;66.40;;;;;;4115168;28;20134;-65
2022/04/12 08:55:21;;;;;;;4.43;1.60;;;25.10;66.40;;;;;;4156795;28;20052;-63
2022/04/12 08:57:36;;;;;;;3.15;1.30;;;25.10;66.40;;;;;;4171393;28;20057;-64
2022/04/12 08:59:48;;;;;;;3.22;1.27;;;25.10;66.40;;;;;;4153404;28;20141;-62
2022/04/12 09:02:00;;;;;;;5.57;1.70;;;25.10;66.40;;;;;;4159239;28;20555;-63
2022/04/12 09:04:03;;;;;;;5.35;1.65;;;25.10;66.40;;;;;;4156184;28;20052;-63
2022/04/12 09:06:06;;;;;;;4.32;1.85;;;25.10;66.50;;;;;;4143522;28;21087;-63
2022/04/12 09:08:32;;;;;;;3.25;1.20;;;25.10;66.50;;;;;;4134643;28;20163;-63
2022/04/12 09:10:36;;;;;;;2.38;1.40;;;25.10;66.40;;;;;;4148553;28;20095;-66
2022/04/12 09:12:38;;;;;;;6.03;1.58;;;25.00;66.40;;;;;;4119057;28;20085;-63
2022/04/12 09:14:46;;;;;;;1.93;1.03;;;25.00;66.40;;;;;;4146965;28;20884;-63
2022/04/12 09:16:52;;;;;;;2.15;1.30;;;25.00;66.40;;;;;;4148667;28;20199;-63
2022/04/12 09:18:55;;;;;;;2.38;1.30;;;25.00;66.30;;;;;;4147138;28;20148;-61
2022/04/12 09:21:13;;;;;;;3.88;1.42;;;25.00;66.30;;;;;;4130156;28;20849;-63
2022/04/12 09:23:16;;;;;;;1.27;1.08;;;25.00;66.20;;;;;;4142685;28;20059;-64
2022/04/12 09:25:18;;;;;;;6.20;1.75;;;25.00;66.40;;;;;;4148084;28;20882;-60
2022/04/12 09:27:26;;;;;;;4.45;1.67;;;24.90;66.50;;;;;;4149690;28;20205;-61
2022/04/12 09:29:32;;;;;;;3.25;1.63;;;25.00;65.10;;;;;;4128433;28;20326;-61
2022/04/12 09:31:36;;;;;;;2.53;1.73;;;24.90;65.90;;;;;;4142709;28;20076;-62
2022/04/12 09:33:40;;;;;;;3.88;1.73;;;24.90;65.60;;;;;;4142736;28;20086;-61
2022/04/12 09:35:42;;;;;;;;;;;24.90;65.20;;;;;;4150677;28;20586;-61
2022/04/12 09:37:46;;;;;;;3.42;1.90;;;24.80;65.50;;;;;;4145087;28;22043;-60
2022/04/12 09:39:56;;;;;;;2.50;1.30;;;24.80;65.20;;;;;;4143477;28;20102;-63
2022/04/12 09:42:00;;;;;;;4.20;1.42;;;24.80;65.30;;;;;;4141403;28;20045;-61
2022/04/12 09:44:08;;;;;;;3.95;1.40;;;24.80;65.20;;;;;;4141658;28;20902;-59
2022/04/12 09:46:14;;;;;;;2.92;1.50;;;24.80;65.50;;;;;;4144215;28;20041;-59
2022/04/12 09:48:16;;;;;;;2.15;1.40;;;24.80;65.70;;;;;;4147885;28;20048;-59
2022/04/12 09:50:22;;;;;;;2.42;1.30;;;24.80;65.60;;;;;;4143362;28;20048;-60
2022/04/12 09:52:24;;;;;;;1.88;1.23;;;24.80;65.50;;;;;;4141084;28;20064;-61
2022/04/12 09:54:34;;;;;;;2.38;1.40;;;24.70;65.50;;;;;;4143961;28;20431;-61
2022/04/12 09:56:39;;;;;;;2.00;1.30;;;24.70;65.50;;;;;;4144470;28;20060;-59
2022/04/12 09:58:44;;;;;;;2.53;1.45;;;24.70;65.40;;;;;;4148704;28;20333;-58
2022/04/12 10:00:47;;;;;;;2.20;1.58;;;24.60;65.60;;;;;;4145840;28;20180;-60
2022/04/12 10:02:49;;;;;;;1.60;1.00;;;24.60;65.70;;;;;;4145566;28;20322;-59
2022/04/12 10:04:53;;;;;;;1.70;1.23;;;24.60;65.60;;;;;;4147503;28;20392;-59
2022/04/12 10:06:55;;;;;;;;;;;24.60;65.50;;;;;;4145865;28;20060;-58
2022/04/12 10:09:01;;;;;;;3.33;1.38;;;24.60;65.70;;;;;;4155217;28;20443;-56
2022/04/12 10:11:04;;;;;;;2.63;1.20;;;24.60;65.80;;;;;;4142471;28;20052;-56
2022/04/12 10:13:06;;;;;;;1.88;0.90;;;24.60;66.50;;;;;;4141989;28;20053;-59
2022/04/12 10:15:09;;;;;;;1.75;1.25;;;24.50;65.60;;;;;;4147822;28;20075;-60
2022/04/12 10:17:13;;;;;;;1.80;1.13;;;24.50;65.70;;;;;;4143812;28;20179;-61
2022/04/12 10:19:16;;;;;;;3.13;1.48;;;24.50;66.00;;;;;;4141586;28;20053;-61
2022/04/12 10:21:19;;;;;;;2.58;1.40;;;24.50;66.20;;;;;;4143470;28;20044;-62
2022/04/12 10:23:25;;;;;;;2.42;1.40;;;24.40;66.00;;;;;;4147248;28;20829;-61
2022/04/12 10:25:29;;;;;;;2.78;1.60;;;24.40;66.00;;;;;;4144600;28;20290;-61
2022/04/12 10:27:31;;;;;;;;;;;24.40;65.80;;;;;;4141752;28;20073;-61
2022/04/12 10:29:33;;;;;;;3.05;1.60;;;24.40;66.10;;;;;;4141167;28;19946;-63
2022/04/12 10:31:37;;;;;;;1.45;1.30;;;24.40;65.60;;;;;;4148048;28;20053;-62
2022/04/12 10:33:39;;;;;;;3.20;1.85;;;24.40;65.80;;;;;;4138838;28;20049;-62
2022/04/12 10:35:56;;;;;;;5.53;1.75;;;24.40;65.50;;;;;;4139960;28;20471;-61
2022/04/12 10:38:02;;;;;;;3.00;1.80;;;24.30;65.50;;;;;;4140124;28;20036;-62
2022/04/12 10:40:12;;;;;;;2.92;1.70;;;24.30;65.50;;;;;;4120716;28;20053;-63
2022/04/12 10:42:20;;;;;;;3.28;1.80;;;24.30;65.50;;;;;;4137184;28;20133;-62
2022/04/12 10:44:23;;;;;;;3.30;1.60;;;24.30;65.50;;;;;;4138147;28;20139;-63
2022/04/12 10:46:47;;;;;;;2.40;1.70;;;24.20;65.60;;;;;;4146182;28;20527;-60
2022/04/12 10:49:06;;;;;;;3.60;1.75;;;24.20;65.50;;;;;;4141690;28;20396;-58